Time;durP1;ratioP1;P1;durP2;ratioP2;P2;SDS_P1;SDS_P2;PMS_P1;PMS_P2;Temp;Humidity;BMP_temperature;BMP_pressure;BME280_temperature;BME280_humidity;BME280_pressure;Samples;Min_cycle;Max_cycle;Signal;HPM_P1;HPM_P2
2021/06/20 00:00:38;;;;;;;13.75;11.95;;;;;;;;;;1909887;75;20076;-71
2021/06/20 00:03:05;;;;;;;17.30;12.85;;;;;;;;;;1910553;75;20088;-72
2021/06/20 00:05:36;;;;;;;18.05;12.05;;;;;;;;;;1915105;67;20080;-73
2021/06/20 00:08:12;;;;;;;15.47;12.97;;;;;;;;;;1943253;67;20090;-72
2021/06/20 00:10:39;;;;;;;17.00;13.65;;;;;;;;;;1943155;67;20096;-71
2021/06/20 00:13:05;;;;;;;18.33;13.50;;;;;;;;;;1916682;67;20144;-72
2021/06/20 00:15:33;;;;;;;21.08;14.85;;;;;;;;;;1912897;75;20123;-73
2021/06/20 00:17:59;;;;;;;20.92;15.48;;;;;;;;;;1958593;67;20544;-71
2021/06/20 00:20:27;;;;;;;21.10;16.05;;;;;;;;;;1912724;75;20141;-72
2021/06/20 00:22:53;;;;;;;22.40;16.30;;;;;;;;;;1913050;75;20080;-71
2021/06/20 00:25:19;;;;;;;31.85;17.63;;;;;;;;;;1912614;67;20091;-72
2021/06/20 00:27:45;;;;;;;27.33;18.48;;;;;;;;;;1938543;67;20152;-72
2021/06/20 00:30:16;;;;;;;27.98;19.52;;;;;;;;;;1963630;67;20079;-71
2021/06/20 00:32:43;;;;;;;24.58;18.88;;;;;;;;;;1916258;67;20076;-72
2021/06/20 00:35:09;;;;;;;24.63;18.33;;;;;;;;;;1913246;75;20493;-72
2021/06/20 00:37:34;;;;;;;22.63;19.27;;;;;;;;;;1913274;75;20577;-71
2021/06/20 00:40:00;;;;;;;26.63;21.38;;;;;;;;;;1933449;67;20099;-72
2021/06/20 00:42:25;;;;;;;30.65;22.65;;;;;;;;;;1912672;67;20117;-70
2021/06/20 00:44:51;;;;;;;32.28;24.77;;;;;;;;;;1918721;67;20397;-72
2021/06/20 00:47:17;;;;;;;47.33;28.45;;;;;;;;;;1937092;67;20087;-71
2021/06/20 00:49:43;;;;;;;96.65;46.63;;;;;;;;;;1912553;75;20102;-69
2021/06/20 00:52:09;;;;;;;132.70;53.08;;;;;;;;;;1912239;75;20080;-70
2021/06/20 00:54:34;;;;;;;310.60;68.68;;;;;;;;;;1912180;75;20088;-69
2021/06/20 00:57:01;;;;;;;478.25;79.35;;;;;;;;;;1914277;67;20139;-71
2021/06/20 00:59:28;;;;;;;286.35;72.20;;;;;;;;;;1921619;67;20106;-71
2021/06/20 01:01:53;;;;;;;311.63;73.97;;;;;;;;;;1909397;75;20120;-71
2021/06/20 01:04:18;;;;;;;244.75;68.65;;;;;;;;;;1937598;67;20103;-71
2021/06/20 01:06:44;;;;;;;255.57;69.30;;;;;;;;;;1912398;75;20083;-70
2021/06/20 01:09:09;;;;;;;296.67;74.20;;;;;;;;;;1912442;75;20155;-70
2021/06/20 01:11:34;;;;;;;222.57;63.83;;;;;;;;;;1912425;75;20098;-70
2021/06/20 01:14:00;;;;;;;227.90;66.13;;;;;;;;;;1963435;67;20133;-70
2021/06/20 01:16:26;;;;;;;249.52;66.80;;;;;;;;;;1912436;75;20374;-70
2021/06/20 01:18:51;;;;;;;281.77;67.10;;;;;;;;;;1913046;67;20523;-70
2021/06/20 01:21:16;;;;;;;221.50;58.75;;;;;;;;;;1912378;75;20141;-71
2021/06/20 01:23:42;;;;;;;169.52;47.63;;;;;;;;;;1914048;67;20080;-70
2021/06/20 01:26:07;;;;;;;120.07;43.33;;;;;;;;;;1912944;75;20527;-71
2021/06/20 01:28:41;;;;;;;112.75;41.60;;;;;;;;;;1913096;67;20393;-70
2021/06/20 01:31:11;;;;;;;81.55;33.95;;;;;;;;;;1910227;75;20088;-71
2021/06/20 01:33:36;;;;;;;76.35;29.95;;;;;;;;;;1911965;67;20135;-70
2021/06/20 01:36:02;;;;;;;51.88;28.73;;;;;;;;;;1912898;75;20076;-70
2021/06/20 01:38:27;;;;;;;81.72;32.38;;;;;;;;;;1912794;75;20080;-72
2021/06/20 01:40:53;;;;;;;101.72;36.47;;;;;;;;;;1912901;75;20087;-71
2021/06/20 01:43:18;;;;;;;74.18;32.92;;;;;;;;;;1919912;67;20501;-71
2021/06/20 01:45:43;;;;;;;83.43;32.72;;;;;;;;;;1912893;75;20080;-71
2021/06/20 01:48:09;;;;;;;85.13;36.00;;;;;;;;;;1934561;67;20559;-70
2021/06/20 01:50:35;;;;;;;85.82;34.78;;;;;;;;;;2016625;67;20149;-71
2021/06/20 01:53:01;;;;;;;92.25;34.28;;;;;;;;;;1910025;75;20457;-71
2021/06/20 01:55:27;;;;;;;73.35;32.30;;;;;;;;;;1909901;75;20125;-71
2021/06/20 01:57:52;;;;;;;66.90;29.73;;;;;;;;;;1911313;75;20091;-71
2021/06/20 02:00:18;;;;;;;72.57;33.55;;;;;;;;;;1912269;75;20087;-70
2021/06/20 02:02:44;;;;;;;78.43;34.08;;;;;;;;;;1912778;75;20131;-70
2021/06/20 02:05:10;;;;;;;76.35;34.85;;;;;;;;;;1924296;67;20088;-70
2021/06/20 02:07:37;;;;;;;80.80;35.03;;;;;;;;;;1912056;67;20095;-70
2021/06/20 02:10:04;;;;;;;70.40;34.13;;;;;;;;;;1911491;67;20080;-70
2021/06/20 02:12:29;;;;;;;68.50;32.67;;;;;;;;;;1910398;75;20080;-70
2021/06/20 02:14:55;;;;;;;71.80;35.00;;;;;;;;;;1910375;75;20091;-71
2021/06/20 02:17:34;;;;;;;80.53;36.78;;;;;;;;;;1966653;67;20126;-71
2021/06/20 02:20:11;;;;;;;124.43;41.53;;;;;;;;;;1998542;67;20134;-70
2021/06/20 02:22:39;;;;;;;109.65;44.17;;;;;;;;;;1917357;67;20087;-69
2021/06/20 02:25:06;;;;;;;109.90;43.08;;;;;;;;;;1928129;67;20098;-71
2021/06/20 02:27:32;;;;;;;88.32;41.72;;;;;;;;;;1919746;67;20080;-70
2021/06/20 02:29:57;;;;;;;99.32;41.35;;;;;;;;;;1915200;67;20071;-69
2021/06/20 02:32:24;;;;;;;108.35;44.15;;;;;;;;;;1909793;75;20443;-70
2021/06/20 02:34:50;;;;;;;107.00;44.25;;;;;;;;;;1909646;75;20107;-70
2021/06/20 02:37:16;;;;;;;94.13;42.97;;;;;;;;;;1910099;75;20080;-70
2021/06/20 02:39:42;;;;;;;96.85;43.72;;;;;;;;;;1912597;75;20092;-70
2021/06/20 02:42:08;;;;;;;103.85;42.75;;;;;;;;;;1926990;67;20094;-71
2021/06/20 02:44:35;;;;;;;91.88;39.63;;;;;;;;;;1912691;75;20143;-71
2021/06/20 02:47:01;;;;;;;95.32;38.08;;;;;;;;;;1927782;67;20497;-71
2021/06/20 02:49:28;;;;;;;70.95;34.80;;;;;;;;;;1912504;75;20076;-70
2021/06/20 02:51:54;;;;;;;60.85;32.67;;;;;;;;;;1912272;75;20392;-70
2021/06/20 02:54:20;;;;;;;72.30;34.95;;;;;;;;;;1912330;75;20132;-70
2021/06/20 02:56:46;;;;;;;63.13;32.15;;;;;;;;;;1912816;75;20095;-70
2021/06/20 02:59:11;;;;;;;59.05;30.73;;;;;;;;;;1912880;75;20075;-70
2021/06/20 03:01:36;;;;;;;61.05;30.63;;;;;;;;;;1985278;67;20141;-70
2021/06/20 03:04:02;;;;;;;51.42;27.77;;;;;;;;;;1912501;75;20153;-71
2021/06/20 03:06:27;;;;;;;52.88;28.85;;;;;;;;;;1912701;75;20094;-70
2021/06/20 03:08:53;;;;;;;47.67;24.77;;;;;;;;;;1912723;75;20127;-70
2021/06/20 03:11:19;;;;;;;37.80;23.83;;;;;;;;;;1912553;75;20464;-70
2021/06/20 03:13:46;;;;;;;35.80;21.42;;;;;;;;;;1912516;75;20385;-70
2021/06/20 03:16:12;;;;;;;35.70;21.75;;;;;;;;;;1957916;67;20400;-70
2021/06/20 03:18:38;;;;;;;35.65;20.98;;;;;;;;;;1912373;75;20094;-69
2021/06/20 03:21:03;;;;;;;29.60;18.65;;;;;;;;;;1920109;67;20088;-70
2021/06/20 03:23:28;;;;;;;26.75;17.23;;;;;;;;;;1993561;67;20087;-69
2021/06/20 03:25:54;;;;;;;30.25;19.10;;;;;;;;;;1923751;67;20097;-70
2021/06/20 03:28:19;;;;;;;19.88;13.93;;;;;;;;;;1974462;67;20142;-70
2021/06/20 03:30:44;;;;;;;25.75;14.15;;;;;;;;;;2033280;67;20148;-71
2021/06/20 03:33:10;;;;;;;17.35;11.38;;;;;;;;;;1910072;75;20139;-70
2021/06/20 03:35:35;;;;;;;17.42;11.30;;;;;;;;;;1909484;75;20374;-70
2021/06/20 03:38:00;;;;;;;20.75;12.52;;;;;;;;;;1909676;75;20080;-70
2021/06/20 03:40:26;;;;;;;21.25;12.45;;;;;;;;;;1923222;67;20095;-70
2021/06/20 03:42:51;;;;;;;21.52;10.68;;;;;;;;;;1926576;67;20148;-70
2021/06/20 03:45:16;;;;;;;14.40;9.57;;;;;;;;;;1910106;75;20134;-70
2021/06/20 03:47:42;;;;;;;16.42;10.27;;;;;;;;;;1914685;67;20083;-70
2021/06/20 03:50:09;;;;;;;15.75;9.40;;;;;;;;;;1929181;67;20090;-69
2021/06/20 03:52:35;;;;;;;13.63;8.52;;;;;;;;;;1912667;75;20655;-70
2021/06/20 03:55:00;;;;;;;14.88;8.75;;;;;;;;;;1981191;67;20389;-70
2021/06/20 03:57:26;;;;;;;15.68;7.47;;;;;;;;;;1983667;67;20083;-69
2021/06/20 03:59:51;;;;;;;12.25;7.85;;;;;;;;;;1912616;75;20084;-71
2021/06/20 04:02:17;;;;;;;12.57;8.00;;;;;;;;;;1912378;75;20080;-70
2021/06/20 04:04:42;;;;;;;15.38;7.47;;;;;;;;;;1912421;75;20076;-70
2021/06/20 04:07:11;;;;;;;10.52;6.80;;;;;;;;;;1913043;75;20135;-70
2021/06/20 04:09:37;;;;;;;8.35;6.75;;;;;;;;;;1968221;67;20091;-69
2021/06/20 04:12:02;;;;;;;14.23;6.88;;;;;;;;;;1925173;67;20557;-69
2021/06/20 04:14:28;;;;;;;10.45;6.32;;;;;;;;;;1981434;67;20080;-71
2021/06/20 04:16:53;;;;;;;13.38;6.22;;;;;;;;;;1912936;75;20087;-70
2021/06/20 04:19:18;;;;;;;13.02;6.35;;;;;;;;;;1912873;75;20203;-71
2021/06/20 04:21:44;;;;;;;8.63;5.43;;;;;;;;;;1912928;75;20098;-69
2021/06/20 04:24:09;;;;;;;10.95;5.35;;;;;;;;;;1914586;67;20088;-71
2021/06/20 04:26:35;;;;;;;15.07;5.32;;;;;;;;;;1909969;75;20099;-72
2021/06/20 04:29:01;;;;;;;6.40;4.50;;;;;;;;;;1939950;67;20109;-70
2021/06/20 04:31:26;;;;;;;9.20;4.78;;;;;;;;;;1912523;67;20508;-72
2021/06/20 04:33:51;;;;;;;5.88;3.90;;;;;;;;;;1922295;67;20080;-71
2021/06/20 04:36:17;;;;;;;12.68;4.60;;;;;;;;;;1933686;67;20136;-70
2021/06/20 04:38:44;;;;;;;6.80;3.80;;;;;;;;;;1917635;67;20079;-71
2021/06/20 04:41:13;;;;;;;11.52;4.43;;;;;;;;;;1915651;67;20119;-70
2021/06/20 04:43:42;;;;;;;7.32;3.90;;;;;;;;;;1998477;67;20076;-71
2021/06/20 04:46:36;;;;;;;13.95;4.63;;;;;;;;;;1913451;67;20512;-71
2021/06/20 04:49:03;;;;;;;11.38;5.35;;;;;;;;;;1946769;67;20084;-71
2021/06/20 04:51:33;;;;;;;13.25;5.70;;;;;;;;;;1910008;75;20157;-72
2021/06/20 04:53:58;;;;;;;12.85;5.10;;;;;;;;;;1909940;75;20091;-71
2021/06/20 04:56:24;;;;;;;14.15;5.60;;;;;;;;;;1926283;67;20092;-71
2021/06/20 04:58:49;;;;;;;14.18;6.10;;;;;;;;;;1912497;67;20124;-71
2021/06/20 05:01:15;;;;;;;15.85;7.25;;;;;;;;;;1912817;75;20088;-70
2021/06/20 05:03:41;;;;;;;14.15;6.93;;;;;;;;;;2047216;67;20099;-70
2021/06/20 05:06:06;;;;;;;18.38;7.80;;;;;;;;;;1913199;75;20113;-72
2021/06/20 05:08:31;;;;;;;17.63;7.65;;;;;;;;;;1913248;75;20090;-71
2021/06/20 05:10:57;;;;;;;19.13;8.25;;;;;;;;;;1927461;67;20429;-72
2021/06/20 05:13:23;;;;;;;14.75;8.27;;;;;;;;;;1912959;75;20397;-72
2021/06/20 05:15:49;;;;;;;19.55;9.45;;;;;;;;;;1944977;67;20088;-71
2021/06/20 05:18:14;;;;;;;19.30;10.02;;;;;;;;;;1911945;67;20110;-72
2021/06/20 05:20:41;;;;;;;18.25;10.20;;;;;;;;;;1971300;67;20397;-72
2021/06/20 05:23:07;;;;;;;18.73;10.73;;;;;;;;;;2020612;67;20497;-72
2021/06/20 05:25:32;;;;;;;22.98;10.75;;;;;;;;;;1912706;75;20075;-72
2021/06/20 05:27:58;;;;;;;18.10;10.23;;;;;;;;;;1912872;75;20127;-71
2021/06/20 05:30:23;;;;;;;25.25;10.15;;;;;;;;;;1916412;67;20091;-71
2021/06/20 05:32:53;;;;;;;21.40;10.80;;;;;;;;;;1912056;67;20088;-71
2021/06/20 05:35:19;;;;;;;21.25;11.52;;;;;;;;;;1909695;75;20084;-70
2021/06/20 05:37:44;;;;;;;18.40;11.68;;;;;;;;;;1909987;75;20110;-71
2021/06/20 05:40:10;;;;;;;20.65;11.88;;;;;;;;;;1925150;67;20084;-72
2021/06/20 05:42:35;;;;;;;25.77;12.95;;;;;;;;;;1995995;67;20139;-72
2021/06/20 05:45:01;;;;;;;20.80;12.27;;;;;;;;;;1912517;67;20091;-72
2021/06/20 05:47:26;;;;;;;20.75;12.80;;;;;;;;;;1913040;75;20137;-71
2021/06/20 05:49:52;;;;;;;23.45;12.95;;;;;;;;;;1916419;67;20091;-70
2021/06/20 05:52:17;;;;;;;23.40;12.52;;;;;;;;;;1937109;67;20079;-71
2021/06/20 05:54:49;;;;;;;21.20;12.48;;;;;;;;;;1912965;75;20109;-70
2021/06/20 05:57:15;;;;;;;21.98;12.55;;;;;;;;;;1912928;75;20147;-71
2021/06/20 05:59:41;;;;;;;16.73;11.88;;;;;;;;;;2016440;67;20076;-71
2021/06/20 06:02:06;;;;;;;21.88;13.45;;;;;;;;;;1912171;67;20137;-71
2021/06/20 06:04:32;;;;;;;24.30;13.73;;;;;;;;;;1910065;75;20127;-72
2021/06/20 06:06:57;;;;;;;21.85;14.52;;;;;;;;;;1917357;67;20083;-71
2021/06/20 06:09:23;;;;;;;24.40;13.85;;;;;;;;;;1956188;67;20076;-71
2021/06/20 06:11:50;;;;;;;17.98;12.60;;;;;;;;;;1912477;75;20084;-73
2021/06/20 06:14:15;;;;;;;19.30;12.15;;;;;;;;;;1913295;67;20092;-72
2021/06/20 06:16:40;;;;;;;18.67;12.95;;;;;;;;;;1912621;75;20434;-72
2021/06/20 06:19:06;;;;;;;20.83;12.65;;;;;;;;;;1930841;67;20091;-71
2021/06/20 06:21:31;;;;;;;20.70;12.27;;;;;;;;;;1948934;67;20147;-71
2021/06/20 06:23:56;;;;;;;21.80;13.40;;;;;;;;;;1938668;67;20142;-71
2021/06/20 06:26:22;;;;;;;23.23;14.23;;;;;;;;;;1933992;67;21435;-71
2021/06/20 06:28:47;;;;;;;19.02;12.18;;;;;;;;;;1953177;67;20095;-71
2021/06/20 06:31:12;;;;;;;18.08;11.68;;;;;;;;;;2008952;67;20080;-71
2021/06/20 06:33:38;;;;;;;20.33;11.38;;;;;;;;;;1918298;67;20084;-70
2021/06/20 06:36:03;;;;;;;18.00;11.85;;;;;;;;;;1910558;67;20520;-70
2021/06/20 06:38:29;;;;;;;20.10;11.82;;;;;;;;;;1909820;75;20091;-71
2021/06/20 06:40:54;;;;;;;18.20;11.57;;;;;;;;;;1939987;67;20078;-71
2021/06/20 06:43:20;;;;;;;21.30;11.93;;;;;;;;;;1912565;75;20090;-70
2021/06/20 06:45:45;;;;;;;22.98;11.68;;;;;;;;;;1915501;67;20079;-70
2021/06/20 06:48:11;;;;;;;18.48;11.25;;;;;;;;;;1912037;67;20091;-72
2021/06/20 06:50:36;;;;;;;14.77;10.18;;;;;;;;;;1917171;67;20092;-71
2021/06/20 06:53:02;;;;;;;14.18;10.02;;;;;;;;;;2006617;67;20087;-70
2021/06/20 06:55:28;;;;;;;13.68;10.07;;;;;;;;;;1912544;75;20501;-71
2021/06/20 06:57:54;;;;;;;14.93;10.00;;;;;;;;;;1912300;75;20076;-70
2021/06/20 07:00:19;;;;;;;15.15;10.40;;;;;;;;;;1932058;67;20095;-70
2021/06/20 07:02:45;;;;;;;14.88;9.73;;;;;;;;;;1975668;67;20100;-69
2021/06/20 07:05:10;;;;;;;15.95;10.68;;;;;;;;;;1917250;67;20087;-69
2021/06/20 07:07:36;;;;;;;16.15;10.90;;;;;;;;;;1923328;67;20079;-69
2021/06/20 07:10:02;;;;;;;20.23;10.98;;;;;;;;;;1910527;75;20489;-69
2021/06/20 07:12:31;;;;;;;16.30;10.93;;;;;;;;;;1909803;75;20091;-70
2021/06/20 07:14:58;;;;;;;20.52;10.80;;;;;;;;;;1909462;75;20088;-70
2021/06/20 07:17:23;;;;;;;17.25;10.40;;;;;;;;;;1918594;67;20084;-71
2021/06/20 07:19:49;;;;;;;16.08;10.00;;;;;;;;;;1915669;67;20092;-72
2021/06/20 07:22:14;;;;;;;16.10;9.15;;;;;;;;;;1912160;75;20378;-72
2021/06/20 07:24:40;;;;;;;13.05;9.05;;;;;;;;;;1944033;67;20095;-70
2021/06/20 07:27:05;;;;;;;10.70;8.52;;;;;;;;;;1934488;67;20533;-70
2021/06/20 07:29:31;;;;;;;12.70;9.45;;;;;;;;;;1981984;67;20086;-69
2021/06/20 07:31:56;;;;;;;12.68;8.90;;;;;;;;;;1930953;67;20145;-72
2021/06/20 07:34:21;;;;;;;12.85;8.77;;;;;;;;;;1989885;67;20084;-70
2021/06/20 07:36:47;;;;;;;13.52;8.85;;;;;;;;;;1998218;67;20083;-69
2021/06/20 07:39:13;;;;;;;13.48;9.13;;;;;;;;;;1952892;67;20406;-69
2021/06/20 07:41:38;;;;;;;11.38;8.45;;;;;;;;;;2011629;67;20521;-70
2021/06/20 07:44:03;;;;;;;16.13;9.50;;;;;;;;;;1913457;67;20090;-69
2021/06/20 07:46:29;;;;;;;13.55;8.23;;;;;;;;;;1973203;67;20131;-70
2021/06/20 07:48:54;;;;;;;12.23;8.43;;;;;;;;;;1912560;75;20095;-70
2021/06/20 07:51:19;;;;;;;13.05;8.35;;;;;;;;;;2005670;67;20080;-70
2021/06/20 07:53:45;;;;;;;13.00;8.80;;;;;;;;;;1973494;67;20103;-70
2021/06/20 07:56:10;;;;;;;13.75;8.57;;;;;;;;;;1953421;67;20112;-72
2021/06/20 07:58:35;;;;;;;16.02;8.50;;;;;;;;;;1974297;67;20083;-69
2021/06/20 08:01:01;;;;;;;9.88;8.18;;;;;;;;;;2008143;67;20076;-71
2021/06/20 08:03:27;;;;;;;11.73;8.23;;;;;;;;;;1937171;67;20087;-69
2021/06/20 08:05:52;;;;;;;12.20;8.50;;;;;;;;;;1913228;67;20090;-70
2021/06/20 08:08:18;;;;;;;15.30;9.00;;;;;;;;;;2006592;67;20083;-72
2021/06/20 08:10:44;;;;;;;11.90;8.77;;;;;;;;;;1913964;67;20143;-71
2021/06/20 08:13:09;;;;;;;14.23;8.55;;;;;;;;;;1991892;67;20091;-71
2021/06/20 08:15:35;;;;;;;11.45;9.82;;;;;;;;;;1916583;67;20106;-70
2021/06/20 08:18:00;;;;;;;16.48;8.82;;;;;;;;;;1947051;67;20135;-69
2021/06/20 08:20:25;;;;;;;10.77;8.40;;;;;;;;;;1911963;75;20135;-69
2021/06/20 08:22:51;;;;;;;14.65;8.73;;;;;;;;;;1912167;75;20492;-70
2021/06/20 08:25:16;;;;;;;14.70;7.85;;;;;;;;;;1918854;67;20164;-70
2021/06/20 08:27:42;;;;;;;14.52;7.82;;;;;;;;;;1972197;67;20076;-69
2021/06/20 08:30:10;;;;;;;8.88;6.47;;;;;;;;;;1911552;67;20102;-68
2021/06/20 08:32:36;;;;;;;6.53;5.10;;;;;;;;;;2011913;67;20551;-69
2021/06/20 08:35:02;;;;;;;5.88;5.20;;;;;;;;;;1929982;67;20088;-69
2021/06/20 08:37:29;;;;;;;8.48;5.28;;;;;;;;;;1933705;67;20091;-69
2021/06/20 08:39:54;;;;;;;7.45;4.97;;;;;;;;;;1946808;67;20135;-69
2021/06/20 08:42:20;;;;;;;7.38;4.97;;;;;;;;;;1935605;67;20087;-69
2021/06/20 08:44:46;;;;;;;6.68;4.65;;;;;;;;;;1938851;67;20092;-69
2021/06/20 08:47:13;;;;;;;11.10;5.55;;;;;;;;;;1942888;67;20076;-69
2021/06/20 08:49:39;;;;;;;7.95;5.60;;;;;;;;;;1950667;67;20090;-69
2021/06/20 08:52:05;;;;;;;9.40;5.53;;;;;;;;;;1953704;67;20098;-70
2021/06/20 08:54:31;;;;;;;7.95;5.53;;;;;;;;;;1942133;67;20505;-70
2021/06/20 08:56:57;;;;;;;7.68;6.00;;;;;;;;;;1943836;67;20091;-70
2021/06/20 08:59:24;;;;;;;8.40;5.65;;;;;;;;;;1988432;67;20094;-70
2021/06/20 09:01:52;;;;;;;6.30;5.53;;;;;;;;;;1964051;67;20141;-69
2021/06/20 09:04:35;;;;;;;7.72;5.50;;;;;;;;;;2020121;67;20090;-70
2021/06/20 09:07:03;;;;;;;7.03;5.45;;;;;;;;;;1969108;67;20144;-70
2021/06/20 09:09:34;;;;;;;9.38;5.95;;;;;;;;;;1912148;75;20088;-69
2021/06/20 09:12:14;;;;;;;7.10;5.75;;;;;;;;;;1932365;67;20084;-69
2021/06/20 09:14:48;;;;;;;10.93;6.40;;;;;;;;;;1925876;67;20079;-71
2021/06/20 09:17:29;;;;;;;10.10;5.45;;;;;;;;;;1918990;67;20099;-70
2021/06/20 09:19:58;;;;;;;9.02;4.35;;;;;;;;;;1909608;75;20131;-71
2021/06/20 09:22:24;;;;;;;6.35;5.10;;;;;;;;;;2013617;67;20400;-70
2021/06/20 09:25:04;;;;;;;7.20;4.85;;;;;;;;;;1910070;75;20090;-71
2021/06/20 09:27:30;;;;;;;7.47;4.90;;;;;;;;;;1917553;67;20148;-71
2021/06/20 09:30:24;;;;;;;4.90;4.40;;;;;;;;;;1911966;75;20100;-70
2021/06/20 09:32:54;;;;;;;6.15;4.65;;;;;;;;;;1909868;75;20106;-70
2021/06/20 09:35:19;;;;;;;5.85;4.82;;;;;;;;;;1910657;75;20095;-70
2021/06/20 09:37:57;;;;;;;6.38;5.03;;;;;;;;;;1912790;67;20400;-70
2021/06/20 09:40:26;;;;;;;7.32;4.20;;;;;;;;;;1911745;75;20099;-69
2021/06/20 09:42:52;;;;;;;7.28;4.30;;;;;;;;;;1912028;75;20141;-70
2021/06/20 09:45:32;;;;;;;5.18;3.72;;;;;;;;;;1911291;75;20132;-70
2021/06/20 09:47:58;;;;;;;5.20;3.55;;;;;;;;;;1912286;67;20084;-69
2021/06/20 09:50:33;;;;;;;5.38;3.55;;;;;;;;;;1912371;75;20091;-69
2021/06/20 09:53:00;;;;;;;6.55;3.45;;;;;;;;;;1911659;75;20430;-69
2021/06/20 09:55:25;;;;;;;8.43;3.67;;;;;;;;;;1912266;75;20118;-71
2021/06/20 09:57:51;;;;;;;4.57;3.25;;;;;;;;;;2000976;67;20498;-69
2021/06/20 10:00:16;;;;;;;6.55;3.15;;;;;;;;;;1909196;75;20088;-69
2021/06/20 10:02:43;;;;;;;4.75;3.40;;;;;;;;;;1909201;75;20084;-69
2021/06/20 10:05:10;;;;;;;6.53;3.03;;;;;;;;;;2038689;67;20075;-68
2021/06/20 10:07:36;;;;;;;4.10;2.58;;;;;;;;;;1912223;75;20107;-68
2021/06/20 10:10:04;;;;;;;5.82;2.75;;;;;;;;;;1911795;75;20435;-69
2021/06/20 10:12:29;;;;;;;7.25;2.83;;;;;;;;;;1913656;67;20095;-69
2021/06/20 10:14:57;;;;;;;6.57;2.80;;;;;;;;;;1912795;75;20092;-69
2021/06/20 10:17:28;;;;;;;4.53;2.70;;;;;;;;;;1913564;67;20095;-72
2021/06/20 10:19:56;;;;;;;5.97;2.42;;;;;;;;;;1912892;75;20091;-69
2021/06/20 10:22:21;;;;;;;4.05;1.90;;;;;;;;;;1912610;75;20084;-69
2021/06/20 10:24:53;;;;;;;4.70;1.48;;;;;;;;;;1912329;75;20090;-69
2021/06/20 10:27:37;;;;;;;2.53;1.70;;;;;;;;;;2016314;67;20135;-71
2021/06/20 10:30:09;;;;;;;8.32;2.00;;;;;;;;;;1913684;67;20533;-67
2021/06/20 10:32:43;;;;;;;3.42;1.67;;;;;;;;;;1923866;67;20099;-72
2021/06/20 10:35:15;;;;;;;3.72;1.83;;;;;;;;;;2025553;67;20091;-71
2021/06/20 10:37:41;;;;;;;5.03;1.95;;;;;;;;;;1912192;67;20135;-68
2021/06/20 10:40:20;;;;;;;2.53;1.80;;;;;;;;;;1912600;75;20092;-69
2021/06/20 10:42:46;;;;;;;2.50;2.10;;;;;;;;;;1914707;67;20221;-70
2021/06/20 10:45:12;;;;;;;3.92;2.08;;;;;;;;;;1913842;67;20141;-69
2021/06/20 10:47:40;;;;;;;6.03;2.25;;;;;;;;;;1934752;67;20087;-70
2021/06/20 10:50:11;;;;;;;5.05;2.08;;;;;;;;;;1912570;75;20098;-69
2021/06/20 10:52:40;;;;;;;4.10;2.28;;;;;;;;;;1912482;75;20149;-69
2021/06/20 10:55:16;;;;;;;2.35;2.08;;;;;;;;;;1912775;75;20515;-71
2021/06/20 10:57:52;;;;;;;3.58;2.08;;;;;;;;;;1912773;75;20083;-70
2021/06/20 11:00:31;;;;;;;4.50;2.28;;;;;;;;;;1941283;67;20099;-69
2021/06/20 11:03:09;;;;;;;3.10;2.10;;;;;;;;;;2056684;67;20084;-71
2021/06/20 11:06:09;;;;;;;2.97;1.88;;;;;;;;;;1917119;67;20186;-68
2021/06/20 11:08:36;;;;;;;6.55;2.25;;;;;;;;;;1912903;75;20139;-69
2021/06/20 11:11:04;;;;;;;3.00;1.70;;;;;;;;;;1912497;67;20094;-70
2021/06/20 11:13:29;;;;;;;2.47;2.00;;;;;;;;;;1914682;67;20083;-70
2021/06/20 11:16:02;;;;;;;3.97;1.88;;;;;;;;;;1912983;75;20087;-70
2021/06/20 11:18:28;;;;;;;7.80;1.70;;;;;;;;;;1913657;67;20519;-76
2021/06/20 11:20:53;;;;;;;5.05;2.00;;;;;;;;;;1915113;67;20087;-71
2021/06/20 11:23:18;;;;;;;4.38;2.13;;;;;;;;;;1912482;75;20090;-69
2021/06/20 11:25:45;;;;;;;2.63;1.70;;;;;;;;;;1913257;67;20087;-68
2021/06/20 11:28:17;;;;;;;5.70;2.15;;;;;;;;;;1962361;67;20079;-70
2021/06/20 11:30:42;;;;;;;4.45;2.10;;;;;;;;;;1912524;75;20373;-70
2021/06/20 11:33:08;;;;;;;4.55;2.15;;;;;;;;;;1912664;75;20090;-71
2021/06/20 11:35:34;;;;;;;2.70;1.63;;;;;;;;;;1912931;75;20083;-69
2021/06/20 11:37:59;;;;;;;2.28;1.85;;;;;;;;;;1923852;67;20090;-68
2021/06/20 11:40:26;;;;;;;6.35;2.17;;;;;;;;;;1934595;67;20104;-69
2021/06/20 11:42:56;;;;;;;3.83;1.95;;;;;;;;;;1912519;75;20099;-70
2021/06/20 11:45:29;;;;;;;3.45;1.90;;;;;;;;;;1912534;75;20141;-68
2021/06/20 11:47:56;;;;;;;6.82;2.28;;;;;;;;;;1913016;75;20412;-70
2021/06/20 11:50:25;;;;;;;2.72;1.92;;;;;;;;;;1914363;67;20095;-71
2021/06/20 11:52:56;;;;;;;2.22;1.90;;;;;;;;;;2069952;67;20145;-73
2021/06/20 11:55:24;;;;;;;4.50;1.90;;;;;;;;;;1913318;67;20520;-71
2021/06/20 11:57:51;;;;;;;3.97;2.10;;;;;;;;;;1913794;67;20154;-70
2021/06/20 12:00:20;;;;;;;7.03;2.05;;;;;;;;;;1909632;75;20092;-69
2021/06/20 12:02:56;;;;;;;2.95;1.80;;;;;;;;;;2059030;67;20090;-69
2021/06/20 12:05:22;;;;;;;4.38;1.88;;;;;;;;;;1912869;75;20536;-69
2021/06/20 12:07:49;;;;;;;7.60;2.58;;;;;;;;;;1998108;67;20084;-69
2021/06/20 12:10:15;;;;;;;3.88;1.83;;;;;;;;;;1909875;75;20076;-69
2021/06/20 12:12:43;;;;;;;3.42;1.90;;;;;;;;;;1909897;75;20184;-69
2021/06/20 12:15:09;;;;;;;4.25;1.63;;;;;;;;;;1909866;75;20088;-70
2021/06/20 12:17:37;;;;;;;3.83;1.80;;;;;;;;;;2032895;67;20120;-69
2021/06/20 12:20:03;;;;;;;3.70;2.03;;;;;;;;;;1960057;67;20091;-70
2021/06/20 12:22:29;;;;;;;2.50;1.80;;;;;;;;;;1915446;67;20431;-69
2021/06/20 12:24:56;;;;;;;3.72;1.90;;;;;;;;;;1912371;75;20090;-69
2021/06/20 12:27:33;;;;;;;4.30;1.65;;;;;;;;;;1912646;75;20075;-69
2021/06/20 12:30:11;;;;;;;6.00;1.95;;;;;;;;;;1912971;75;20400;-70
2021/06/20 12:32:37;;;;;;;2.53;1.50;;;;;;;;;;2050780;67;20127;-70
2021/06/20 12:35:02;;;;;;;2.05;1.48;;;;;;;;;;1947729;67;20418;-70
2021/06/20 12:37:41;;;;;;;2.50;1.77;;;;;;;;;;1933198;67;20447;-70
2021/06/20 12:40:15;;;;;;;2.08;1.73;;;;;;;;;;1980212;67;20088;-70
2021/06/20 12:42:46;;;;;;;4.03;1.55;;;;;;;;;;1912849;75;20089;-70
2021/06/20 12:45:22;;;;;;;3.70;1.70;;;;;;;;;;1912711;75;20102;-70
2021/06/20 12:47:48;;;;;;;3.72;1.70;;;;;;;;;;1930598;67;20088;-71
2021/06/20 12:50:13;;;;;;;6.72;1.77;;;;;;;;;;1912248;67;20094;-70
2021/06/20 12:52:42;;;;;;;3.50;1.98;;;;;;;;;;1984007;67;20133;-70
2021/06/20 12:55:15;;;;;;;7.13;1.92;;;;;;;;;;1912531;75;20109;-69
2021/06/20 12:57:49;;;;;;;4.10;1.30;;;;;;;;;;1912471;75;20091;-68
2021/06/20 13:00:15;;;;;;;2.45;1.58;;;;;;;;;;1912374;75;20135;-69
2021/06/20 13:02:41;;;;;;;2.75;1.40;;;;;;;;;;1911502;75;20433;-68
2021/06/20 13:05:07;;;;;;;4.00;1.60;;;;;;;;;;1915431;67;20384;-68
2021/06/20 13:07:35;;;;;;;2.65;1.30;;;;;;;;;;1935012;67;20497;-68
2021/06/20 13:10:04;;;;;;;3.17;1.50;;;;;;;;;;1909142;75;20405;-69
2021/06/20 13:12:29;;;;;;;5.10;1.70;;;;;;;;;;1910565;67;20083;-68
2021/06/20 13:14:55;;;;;;;5.28;1.65;;;;;;;;;;2058981;67;20141;-69
2021/06/20 13:17:20;;;;;;;5.65;1.83;;;;;;;;;;1912358;75;20418;-68
2021/06/20 13:19:46;;;;;;;3.42;1.77;;;;;;;;;;1912470;75;20145;-68
2021/06/20 13:22:11;;;;;;;3.55;1.50;;;;;;;;;;1911962;75;20087;-69
2021/06/20 13:24:36;;;;;;;2.05;1.45;;;;;;;;;;1921716;67;20084;-68
2021/06/20 13:27:02;;;;;;;2.70;1.60;;;;;;;;;;1910452;67;20141;-69
2021/06/20 13:29:27;;;;;;;2.42;1.40;;;;;;;;;;2044567;67;20135;-68
2021/06/20 13:31:53;;;;;;;3.95;1.80;;;;;;;;;;1938889;67;20087;-68
2021/06/20 13:34:19;;;;;;;2.35;1.50;;;;;;;;;;1912151;75;20084;-69
2021/06/20 13:36:45;;;;;;;2.78;1.25;;;;;;;;;;1912050;75;20085;-69
2021/06/20 13:39:10;;;;;;;3.28;1.08;;;;;;;;;;1918472;67;20396;-72
2021/06/20 13:41:37;;;;;;;3.53;1.27;;;;;;;;;;2068761;67;20389;-68
2021/06/20 13:44:02;;;;;;;1.33;1.20;;;;;;;;;;1912255;75;20131;-69
2021/06/20 13:46:28;;;;;;;2.05;1.10;;;;;;;;;;1911475;67;20417;-68
2021/06/20 13:48:53;;;;;;;4.07;1.40;;;;;;;;;;2013645;67;20508;-67
2021/06/20 13:51:18;;;;;;;6.85;1.40;;;;;;;;;;1912536;75;20111;-68
2021/06/20 13:53:44;;;;;;;4.97;1.15;;;;;;;;;;1949036;67;20542;-68
2021/06/20 13:56:09;;;;;;;2.75;1.40;;;;;;;;;;1913661;67;20497;-69
2021/06/20 13:58:35;;;;;;;4.15;1.20;;;;;;;;;;1912734;75;20083;-68
2021/06/20 14:01:00;;;;;;;2.88;1.40;;;;;;;;;;1912689;75;20507;-68
2021/06/20 14:03:28;;;;;;;1.95;1.30;;;;;;;;;;1910559;67;20145;-67
2021/06/20 14:05:53;;;;;;;2.25;1.83;;;;;;;;;;1909802;75;20092;-68
2021/06/20 14:08:18;;;;;;;2.97;1.60;;;;;;;;;;2038534;67;20079;-68
2021/06/20 14:10:44;;;;;;;3.20;1.60;;;;;;;;;;1912633;75;20132;-69
2021/06/20 14:13:09;;;;;;;2.47;1.63;;;;;;;;;;1944171;67;20447;-69
2021/06/20 14:15:34;;;;;;;3.45;1.25;;;;;;;;;;1912911;67;20076;-69
2021/06/20 14:18:00;;;;;;;3.45;1.20;;;;;;;;;;1915009;67;20084;-69
2021/06/20 14:20:26;;;;;;;2.38;1.27;;;;;;;;;;1912301;75;20201;-68
2021/06/20 14:22:51;;;;;;;4.50;1.10;;;;;;;;;;1912341;75;20102;-69
2021/06/20 14:25:16;;;;;;;3.15;1.13;;;;;;;;;;1912275;75;20106;-69
2021/06/20 14:27:42;;;;;;;1.75;1.52;;;;;;;;;;1913599;67;20532;-68